Weather at Lummen Heliport

Public forecast

Using degrees Celsius for public forecast. Weather courtesy of forecast.io.

Closest aviation weather report (METAR) to Lummen Heliport

Closest report is Schaffen Airfield, 6.6 nm (12.3 km) W.

2024/07/23 02:25 (retrieved 23 minutes ago)

EBDT 230225Z AUTO 19005KT 9999 /// 18/16 Q1016 BLU

Closest aviation forecast (TAF) to Lummen Heliport

Forecast is more than 6 hours old.

Closest forecast is Gilze Rijen Air Base, 36.4 nm (67.5 km) NNW.

2024/07/22 17:03 (retrieved 10 hours ago)

TAF TAF EHGR 221625Z 2217/2305 25009KT 9999 SCT035 BECMG 2301/2304 SCT015 BKN018 PROB30 TEMPO 2302/2305 4500 -RADZ FEW008 SCT010 BKN015